createdAt,value
2023-03-13T00:00:47.748Z,9.17
2023-03-13T00:02:52.441Z,9.13
2023-03-13T00:04:57.397Z,9.11
2023-03-13T00:07:02.073Z,9.09
2023-03-13T00:09:09.224Z,9.08
2023-03-13T00:11:15.299Z,9.08
2023-03-13T00:13:19.998Z,9.05
2023-03-13T00:15:24.648Z,9.03
2023-03-13T00:17:29.329Z,9.02
2023-03-13T00:19:34.040Z,8.97
2023-03-13T00:21:38.825Z,8.94
2023-03-13T00:23:43.736Z,8.92
2023-03-13T00:25:48.375Z,8.89
2023-03-13T00:27:53.001Z,8.89
2023-03-13T00:29:57.630Z,8.88
2023-03-13T00:32:02.718Z,8.87
2023-03-13T00:34:07.607Z,8.85
2023-03-13T00:36:13.798Z,8.81
2023-03-13T00:38:18.495Z,8.79
2023-03-13T00:40:23.203Z,8.73
2023-03-13T00:42:27.836Z,8.67
2023-03-13T00:44:33.544Z,8.63
2023-03-13T00:46:38.629Z,8.59
2023-03-13T00:48:43.293Z,8.55
2023-03-13T00:50:49.890Z,8.50
2023-03-13T00:52:54.766Z,8.46
2023-03-13T00:54:59.437Z,8.43
2023-03-13T00:57:04.201Z,8.40
2023-03-13T00:59:08.961Z,8.39
2023-03-13T01:01:15.825Z,8.35
2023-03-13T01:03:22.245Z,8.32
2023-03-13T01:05:26.989Z,8.29
2023-03-13T01:07:32.221Z,8.25
2023-03-13T01:09:36.920Z,8.22
2023-03-13T01:11:43.229Z,8.16
2023-03-13T01:13:48.550Z,8.12
2023-03-13T01:15:53.209Z,8.10
2023-03-13T01:17:57.875Z,8.08
2023-03-13T01:20:02.560Z,8.08
2023-03-13T01:22:07.225Z,8.06
2023-03-13T01:24:12.279Z,8.01
2023-03-13T01:26:17.079Z,7.96
2023-03-13T01:28:22.102Z,7.91
2023-03-13T01:30:28.136Z,7.87
2023-03-13T01:32:34.538Z,7.81
2023-03-13T01:34:40.352Z,7.78
2023-03-13T01:36:45.038Z,7.73
2023-03-13T01:38:51.761Z,7.70
2023-03-13T01:40:56.533Z,7.67
2023-03-13T01:43:17.573Z,7.62
2023-03-13T01:46:03.593Z,7.55
2023-03-13T01:48:15.463Z,7.47
2023-03-13T01:50:27.327Z,7.43
2023-03-13T01:52:47.126Z,7.38
2023-03-13T01:55:07.516Z,7.34
2023-03-13T01:57:16.859Z,7.31
2023-03-13T01:59:24.161Z,7.28
2023-03-13T02:01:29.804Z,7.26
2023-03-13T02:03:37.189Z,7.26
2023-03-13T02:05:44.119Z,7.24
2023-03-13T02:07:51.595Z,7.24
2023-03-13T02:09:58.636Z,7.21
2023-03-13T02:12:09.974Z,7.20
2023-03-13T02:14:20.323Z,7.19
2023-03-13T02:16:26.964Z,7.19
2023-03-13T02:18:31.795Z,7.17
2023-03-13T02:20:38.371Z,7.16
2023-03-13T02:22:50.080Z,7.17
2023-03-13T02:25:03.790Z,7.16
2023-03-13T02:27:09.025Z,7.19
2023-03-13T02:29:15.888Z,7.20
2023-03-13T02:31:20.980Z,7.23
2023-03-13T02:33:28.901Z,7.26
2023-03-13T02:35:36.279Z,7.29
2023-03-13T02:37:46.773Z,7.32
2023-03-13T02:39:55.503Z,7.38
2023-03-13T02:42:01.795Z,7.43
2023-03-13T02:44:06.782Z,7.50
2023-03-13T02:46:13.464Z,7.58
2023-03-13T02:48:28.204Z,7.66
2023-03-13T02:50:33.897Z,7.74
2023-03-13T02:52:42.186Z,7.80
2023-03-13T02:54:53.137Z,7.88
2023-03-13T02:57:01.854Z,7.92
2023-03-13T02:59:06.635Z,7.94
2023-03-13T03:01:12.408Z,7.97
2023-03-13T03:03:17.882Z,7.99
2023-03-13T03:05:22.728Z,8.01
2023-03-13T03:07:27.543Z,8.04
2023-03-13T03:09:32.266Z,8.06
2023-03-13T03:11:39.978Z,8.09
2023-03-13T03:13:47.580Z,8.11
2023-03-13T03:15:52.756Z,8.13
2023-03-13T03:17:57.402Z,8.18
2023-03-13T03:20:02.865Z,8.22
2023-03-13T03:22:10.331Z,8.28
2023-03-13T03:24:15.013Z,8.36
2023-03-13T03:26:20.456Z,8.44
2023-03-13T03:28:25.515Z,8.52
2023-03-13T03:30:30.160Z,8.61
2023-03-13T03:32:35.256Z,8.68
2023-03-13T03:34:40.093Z,8.74
2023-03-13T03:36:45.236Z,8.81
2023-03-13T03:38:50.196Z,8.88
2023-03-13T03:40:56.546Z,8.94
2023-03-13T03:43:01.397Z,8.98
2023-03-13T03:45:07.711Z,9.02
2023-03-13T03:47:13.816Z,9.08
2023-03-13T03:49:20.569Z,9.13
2023-03-13T03:51:25.387Z,9.16
2023-03-13T03:53:30.298Z,9.19
2023-03-13T03:55:35.236Z,9.23
2023-03-13T03:57:40.208Z,9.26
2023-03-13T03:59:47.334Z,9.30
2023-03-13T04:01:52.180Z,9.34
2023-03-13T04:03:59.965Z,9.38
2023-03-13T04:06:05.086Z,9.37
2023-03-13T04:08:11.617Z,9.35
2023-03-13T04:10:16.579Z,9.33
2023-03-13T04:12:22.624Z,9.30
2023-03-13T04:14:29.972Z,9.26
2023-03-13T04:16:35.591Z,9.23
2023-03-13T04:18:40.308Z,9.22
2023-03-13T04:20:45.159Z,9.22
2023-03-13T04:22:50.181Z,9.20
2023-03-13T04:24:55.310Z,9.18
2023-03-13T04:27:00.753Z,9.16
2023-03-13T04:29:05.618Z,9.17
2023-03-13T04:31:30.505Z,9.17
2023-03-13T04:34:01.588Z,9.22
2023-03-13T04:36:21.814Z,9.27
2023-03-13T04:38:44.755Z,9.30
2023-03-13T04:41:15.560Z,9.32
2023-03-13T04:43:28.076Z,9.33
2023-03-13T04:45:46.969Z,9.29
2023-03-13T04:48:02.280Z,9.26
2023-03-13T04:50:08.000Z,9.22
2023-03-13T04:52:23.306Z,9.16
2023-03-13T04:54:46.307Z,9.11
2023-03-13T04:57:07.886Z,9.03
2023-03-13T04:59:20.358Z,8.96
2023-03-13T05:01:54.490Z,8.88
2023-03-13T05:04:28.636Z,8.80
2023-03-13T05:06:43.897Z,8.75
2023-03-13T05:09:08.504Z,8.67
2023-03-13T05:11:36.056Z,8.62
2023-03-13T05:13:54.574Z,8.58
2023-03-13T05:16:26.893Z,8.57
2023-03-13T05:18:42.357Z,8.56
2023-03-13T05:21:10.302Z,8.54
2023-03-13T05:23:42.808Z,8.51
2023-03-13T05:26:02.988Z,8.46
2023-03-13T05:28:31.081Z,8.40
2023-03-13T05:30:50.656Z,8.36
2023-03-13T05:33:14.361Z,8.31
2023-03-13T05:35:54.481Z,8.28
2023-03-13T05:38:06.707Z,8.23
2023-03-13T05:40:23.768Z,8.21
2023-03-13T05:42:46.785Z,8.18
2023-03-13T05:45:11.608Z,8.17
2023-03-13T05:47:34.602Z,8.18
2023-03-13T05:50:06.902Z,8.21
2023-03-13T05:52:33.487Z,8.24
2023-03-13T05:54:56.827Z,8.26
2023-03-13T05:57:12.315Z,8.28
2023-03-13T05:59:28.510Z,8.31
2023-03-13T06:01:50.729Z,8.34
2023-03-13T06:04:05.074Z,8.38
2023-03-13T06:06:12.504Z,8.41
2023-03-13T06:08:22.591Z,8.46
2023-03-13T06:10:27.766Z,8.48
2023-03-13T06:12:32.475Z,8.51
2023-03-13T06:14:37.565Z,8.55
2023-03-13T06:16:59.392Z,8.57
2023-03-13T06:19:05.767Z,8.58
2023-03-13T06:21:10.416Z,8.61
2023-03-13T06:23:15.357Z,8.63
2023-03-13T06:25:20.124Z,8.65
2023-03-13T06:27:24.763Z,8.65
2023-03-13T06:29:29.597Z,8.66
2023-03-13T06:31:34.281Z,8.66
2023-03-13T06:33:38.929Z,8.66
2023-03-13T06:35:55.702Z,8.65
2023-03-13T06:38:01.465Z,8.62
2023-03-13T06:40:07.269Z,8.65
2023-03-13T06:42:11.926Z,8.65
2023-03-13T06:44:16.534Z,8.65
2023-03-13T06:46:23.044Z,8.63
2023-03-13T06:48:27.820Z,8.64
2023-03-13T06:50:32.690Z,8.67
2023-03-13T06:52:43.295Z,8.66
2023-03-13T06:54:48.296Z,8.66
2023-03-13T06:56:53.041Z,8.69
2023-03-13T06:58:59.876Z,8.74
2023-03-13T07:01:10.728Z,8.77
2023-03-13T07:03:15.440Z,8.79
2023-03-13T07:05:20.126Z,8.80
2023-03-13T07:07:31.775Z,8.82
2023-03-13T07:09:36.953Z,8.86
2023-03-13T07:11:41.669Z,8.93
2023-03-13T07:13:46.325Z,9.02
2023-03-13T07:15:51.097Z,9.11
2023-03-13T07:17:58.372Z,9.20
2023-03-13T07:20:03.477Z,9.31
2023-03-13T07:22:08.184Z,9.40
2023-03-13T07:24:12.932Z,9.48
2023-03-13T07:26:17.757Z,9.53
2023-03-13T07:28:22.540Z,9.62
2023-03-13T07:30:27.278Z,9.75
2023-03-13T07:32:34.170Z,9.87
2023-03-13T07:34:38.876Z,9.99
2023-03-13T07:36:43.473Z,10.07
2023-03-13T07:38:51.249Z,10.17
2023-03-13T07:40:57.585Z,10.27
2023-03-13T07:43:02.934Z,10.42
2023-03-13T07:45:08.994Z,10.56
2023-03-13T07:47:13.617Z,10.68
2023-03-13T07:49:18.314Z,10.77
2023-03-13T07:51:36.794Z,10.82
2023-03-13T07:53:47.707Z,10.87
2023-03-13T07:55:57.331Z,10.91
2023-03-13T07:58:01.984Z,11.00
2023-03-13T08:00:08.972Z,11.07
2023-03-13T08:02:16.664Z,11.14
2023-03-13T08:04:21.319Z,11.18
2023-03-13T08:06:26.985Z,11.27
2023-03-13T08:08:31.829Z,11.39
2023-03-13T08:10:36.546Z,11.50
2023-03-13T08:12:41.177Z,11.60
2023-03-13T08:14:45.839Z,11.75
2023-03-13T08:16:50.487Z,11.92
2023-03-13T08:18:57.124Z,12.12
2023-03-13T08:21:04.578Z,12.28
2023-03-13T08:23:09.198Z,12.45
2023-03-13T08:25:14.235Z,12.59
2023-03-13T08:27:18.920Z,12.71
2023-03-13T08:29:23.601Z,12.81
2023-03-13T08:31:30.319Z,12.87
2023-03-13T08:33:34.938Z,13.00
2023-03-13T08:35:39.652Z,13.11
2023-03-13T08:37:44.314Z,13.20
2023-03-13T08:39:51.439Z,13.29
2023-03-13T08:41:56.062Z,13.34
2023-03-13T08:44:01.865Z,13.37
2023-03-13T08:46:06.874Z,13.38
2023-03-13T08:48:11.734Z,13.41
2023-03-13T08:50:16.800Z,13.44
2023-03-13T08:52:21.462Z,13.48
2023-03-13T08:54:26.205Z,13.52
2023-03-13T08:56:31.979Z,13.59
2023-03-13T08:58:36.740Z,13.68
2023-03-13T09:00:41.395Z,13.75
2023-03-13T09:02:46.116Z,13.81
2023-03-13T09:04:50.973Z,13.85
2023-03-13T09:06:55.630Z,13.88
2023-03-13T09:09:00.324Z,13.89
2023-03-13T09:11:07.180Z,13.87
2023-03-13T09:13:11.885Z,13.91
2023-03-13T09:15:16.597Z,14.02
2023-03-13T09:17:21.265Z,14.14
2023-03-13T09:19:25.937Z,14.23
2023-03-13T09:21:33.058Z,14.30
2023-03-13T09:23:37.866Z,14.36
2023-03-13T09:25:42.550Z,14.41
2023-03-13T09:27:47.197Z,14.48
2023-03-13T09:29:51.846Z,14.54
2023-03-13T09:31:56.581Z,14.54
2023-03-13T09:34:01.681Z,14.57
2023-03-13T09:36:07.575Z,14.60
2023-03-13T09:38:12.723Z,14.55
2023-03-13T09:40:20.747Z,14.46
2023-03-13T09:42:40.683Z,14.42
2023-03-13T09:44:50.060Z,14.43
2023-03-13T09:47:03.751Z,14.44
2023-03-13T09:49:18.335Z,14.41
2023-03-13T09:51:28.527Z,14.36
2023-03-13T09:53:42.074Z,14.34
2023-03-13T09:55:47.708Z,14.20
2023-03-13T09:57:55.841Z,14.13
2023-03-13T10:00:05.274Z,14.16
2023-03-13T10:02:24.556Z,14.21
2023-03-13T10:04:35.570Z,14.23
2023-03-13T10:06:43.941Z,14.18
2023-03-13T10:08:48.636Z,14.15
2023-03-13T10:10:58.402Z,14.11
2023-03-13T10:13:15.365Z,14.12
2023-03-13T10:15:31.437Z,14.20
2023-03-13T10:17:38.055Z,14.27
2023-03-13T10:19:43.965Z,14.36
2023-03-13T10:21:53.236Z,14.45
2023-03-13T10:24:05.184Z,14.49
2023-03-13T10:26:20.485Z,14.51
2023-03-13T10:28:26.388Z,14.59
2023-03-13T10:30:33.073Z,14.69
2023-03-13T10:32:38.016Z,14.76
2023-03-13T10:34:52.406Z,14.82
2023-03-13T10:37:01.828Z,14.90
2023-03-13T10:39:14.549Z,14.94
2023-03-13T10:41:27.712Z,14.97
2023-03-13T10:43:32.480Z,15.00
2023-03-13T10:45:40.666Z,15.02
2023-03-13T10:47:45.660Z,15.10
2023-03-13T10:49:52.322Z,15.20
2023-03-13T10:51:58.928Z,15.32
2023-03-13T10:54:15.509Z,15.45
2023-03-13T10:56:29.625Z,15.56
2023-03-13T10:58:40.492Z,15.64
2023-03-13T11:00:45.295Z,15.63
2023-03-13T11:02:50.216Z,15.63
2023-03-13T11:04:55.284Z,15.74
2023-03-13T11:07:06.228Z,15.80
2023-03-13T11:09:16.156Z,15.73
2023-03-13T11:11:21.548Z,15.64
2023-03-13T11:13:37.683Z,15.67
2023-03-13T11:15:51.479Z,15.73
2023-03-13T11:18:03.950Z,15.75
2023-03-13T11:20:21.207Z,15.69
2023-03-13T11:22:37.836Z,15.63
2023-03-13T11:24:49.971Z,15.69
2023-03-13T11:27:05.353Z,15.75
2023-03-13T11:29:16.930Z,15.76
2023-03-13T11:31:28.384Z,15.75
2023-03-13T11:33:43.557Z,15.85
2023-03-13T11:35:51.362Z,16.01
2023-03-13T11:37:58.256Z,16.16
2023-03-13T11:40:16.639Z,16.31
2023-03-13T11:42:40.116Z,16.43
2023-03-13T11:44:58.555Z,16.49
2023-03-13T11:47:16.114Z,16.50
2023-03-13T11:49:56.619Z,16.56
2023-03-13T11:52:14.117Z,16.68
2023-03-13T11:54:38.340Z,16.76
2023-03-13T11:56:47.802Z,16.85
2023-03-13T11:59:06.762Z,16.85
2023-03-13T12:01:14.884Z,16.86
2023-03-13T12:03:26.836Z,16.86
2023-03-13T12:05:40.053Z,16.89
2023-03-13T12:07:49.469Z,16.89
2023-03-13T12:09:59.038Z,16.88
2023-03-13T12:12:11.675Z,16.90
2023-03-13T12:14:21.464Z,16.86
2023-03-13T12:16:37.367Z,16.86
2023-03-13T12:18:45.871Z,16.86
2023-03-13T12:20:57.047Z,16.79
2023-03-13T12:23:16.715Z,16.70
2023-03-13T12:25:25.033Z,16.75
2023-03-13T12:27:35.259Z,16.78
2023-03-13T12:29:51.486Z,16.82
2023-03-13T12:31:59.825Z,16.84
2023-03-13T12:34:14.903Z,16.84
2023-03-13T12:36:26.295Z,16.84
2023-03-13T12:38:37.886Z,16.92
2023-03-13T12:40:50.716Z,17.01
2023-03-13T12:43:02.510Z,17.15
2023-03-13T12:45:12.479Z,17.23
2023-03-13T12:47:29.342Z,17.30
2023-03-13T12:49:52.688Z,17.40
2023-03-13T12:52:39.970Z,17.47
2023-03-13T12:54:57.986Z,17.52
2023-03-13T12:57:14.192Z,17.42
2023-03-13T12:59:22.283Z,17.36
2023-03-13T13:01:34.417Z,17.36
2023-03-13T13:03:47.313Z,17.34
2023-03-13T13:06:05.936Z,17.28
2023-03-13T13:08:26.324Z,17.25
2023-03-13T13:10:31.221Z,17.23
2023-03-13T13:12:36.456Z,17.23
2023-03-13T13:15:02.478Z,17.22
2023-03-13T13:17:22.552Z,17.22
2023-03-13T13:19:45.371Z,17.23
2023-03-13T13:22:27.031Z,17.24
2023-03-13T13:24:50.744Z,17.23
2023-03-13T13:26:55.370Z,17.18
2023-03-13T13:29:01.071Z,17.15
2023-03-13T13:31:42.883Z,17.10
2023-03-13T13:33:47.517Z,17.02
2023-03-13T13:36:28.674Z,16.94
2023-03-13T13:38:34.463Z,16.85
2023-03-13T13:40:39.270Z,16.76
2023-03-13T13:42:51.873Z,16.70
2023-03-13T13:45:01.181Z,16.67
2023-03-13T13:47:23.234Z,16.69
2023-03-13T13:49:34.436Z,16.73
2023-03-13T13:51:39.422Z,16.78
2023-03-13T13:53:47.690Z,16.83
2023-03-13T13:55:52.357Z,16.85
2023-03-13T13:58:02.205Z,16.90
2023-03-13T14:00:21.063Z,16.94
2023-03-13T14:02:29.650Z,16.97
2023-03-13T14:04:38.750Z,16.98
2023-03-13T14:06:48.223Z,17.01
2023-03-13T14:08:55.979Z,17.08
2023-03-13T14:11:22.328Z,17.12
2023-03-13T14:13:27.073Z,17.15
2023-03-13T14:15:33.586Z,17.18
2023-03-13T14:17:43.303Z,17.19
2023-03-13T14:19:50.626Z,17.16
2023-03-13T14:22:02.102Z,17.15
2023-03-13T14:24:14.993Z,17.09
2023-03-13T14:26:21.872Z,17.08
2023-03-13T14:28:28.255Z,17.08
2023-03-13T14:30:32.907Z,17.07
2023-03-13T14:32:38.143Z,17.07
2023-03-13T14:34:43.017Z,17.10
2023-03-13T14:36:55.516Z,17.11
2023-03-13T14:39:02.024Z,17.08
2023-03-13T14:41:22.381Z,17.08
2023-03-13T14:43:33.749Z,17.08
2023-03-13T14:45:38.759Z,17.10
2023-03-13T14:47:43.938Z,17.08
2023-03-13T14:49:48.946Z,17.04
2023-03-13T14:52:01.749Z,17.00
2023-03-13T14:54:23.723Z,16.99
2023-03-13T14:56:37.630Z,16.98
2023-03-13T14:58:42.249Z,17.01
2023-03-13T15:00:48.536Z,17.03
2023-03-13T15:03:12.011Z,17.02
2023-03-13T15:05:33.747Z,17.02
2023-03-13T15:07:41.038Z,16.99
2023-03-13T15:09:47.140Z,16.95
2023-03-13T15:11:58.407Z,16.93
2023-03-13T15:14:03.694Z,16.90
2023-03-13T15:16:16.593Z,16.88
2023-03-13T15:18:22.996Z,16.90
2023-03-13T15:20:27.692Z,16.89
2023-03-13T15:22:34.665Z,16.82
2023-03-13T15:24:39.621Z,16.78
2023-03-13T15:26:44.959Z,16.75
2023-03-13T15:28:50.411Z,16.75
2023-03-13T15:30:55.081Z,16.70
2023-03-13T15:32:59.994Z,16.67
2023-03-13T15:35:24.820Z,16.64
2023-03-13T15:37:30.562Z,16.62
2023-03-13T15:39:35.252Z,16.61
2023-03-13T15:41:40.011Z,16.60
2023-03-13T15:43:44.769Z,16.58
2023-03-13T15:45:51.500Z,16.56
2023-03-13T15:47:56.345Z,16.54
2023-03-13T15:50:01.179Z,16.54
2023-03-13T15:52:13.254Z,16.54
2023-03-13T15:54:20.847Z,16.51
2023-03-13T15:56:30.339Z,16.47
2023-03-13T15:58:35.129Z,16.42
2023-03-13T16:00:39.947Z,16.39
2023-03-13T16:02:44.612Z,16.34
2023-03-13T16:04:50.113Z,16.28
2023-03-13T16:06:54.858Z,16.21
2023-03-13T16:09:00.486Z,16.15
2023-03-13T16:11:05.635Z,16.12
2023-03-13T16:13:10.622Z,16.09
2023-03-13T16:15:15.460Z,16.04
2023-03-13T16:17:21.206Z,16.01
2023-03-13T16:19:25.940Z,15.96
2023-03-13T16:21:32.543Z,15.92
2023-03-13T16:23:37.187Z,15.86
2023-03-13T16:25:41.918Z,15.81
2023-03-13T16:27:46.555Z,15.79
2023-03-13T16:29:51.253Z,15.78
2023-03-13T16:31:55.962Z,15.74
2023-03-13T16:34:01.300Z,15.71
2023-03-13T16:36:13.400Z,15.69
2023-03-13T16:38:18.059Z,15.63
2023-03-13T16:40:24.807Z,15.61
2023-03-13T16:42:29.553Z,15.57
2023-03-13T16:44:34.567Z,15.54
2023-03-13T16:46:44.463Z,15.48
2023-03-13T16:48:52.774Z,15.43
2023-03-13T16:50:57.705Z,15.38
2023-03-13T16:53:04.442Z,15.35
2023-03-13T16:55:10.186Z,15.31
2023-03-13T16:57:17.718Z,15.29
2023-03-13T16:59:22.437Z,15.25
2023-03-13T17:01:28.126Z,15.20
2023-03-13T17:03:33.321Z,15.13
2023-03-13T17:05:38.015Z,15.07
2023-03-13T17:07:43.831Z,15.04
2023-03-13T17:09:49.548Z,14.99
2023-03-13T17:11:54.429Z,14.95
2023-03-13T17:13:59.397Z,14.91
2023-03-13T17:16:10.464Z,14.86
2023-03-13T17:18:15.362Z,14.81
2023-03-13T17:20:22.358Z,14.78
2023-03-13T17:22:27.556Z,14.73
2023-03-13T17:24:32.859Z,14.68
2023-03-13T17:26:39.377Z,14.64
2023-03-13T17:28:44.863Z,14.60
2023-03-13T17:30:50.224Z,14.55
2023-03-13T17:32:56.097Z,14.51
2023-03-13T17:35:01.579Z,14.48
2023-03-13T17:37:15.025Z,14.45
2023-03-13T17:39:20.327Z,14.41
2023-03-13T17:41:28.047Z,14.37
2023-03-13T17:43:32.863Z,14.34
2023-03-13T17:45:38.036Z,14.29
2023-03-13T17:47:43.666Z,14.25
2023-03-13T17:49:51.567Z,14.20
2023-03-13T17:51:56.974Z,14.17
2023-03-13T17:54:04.746Z,14.13
2023-03-13T17:56:16.572Z,14.09
2023-03-13T17:58:22.303Z,14.04
2023-03-13T18:00:29.261Z,13.99
2023-03-13T18:02:34.497Z,13.94
2023-03-13T18:04:42.420Z,13.90
2023-03-13T18:06:49.691Z,13.86
2023-03-13T18:08:57.929Z,13.82
2023-03-13T18:11:04.560Z,13.78
2023-03-13T18:13:12.620Z,13.75
2023-03-13T18:15:18.071Z,13.73
2023-03-13T18:17:24.804Z,13.70
2023-03-13T18:19:31.271Z,13.67
2023-03-13T18:21:37.731Z,13.64
2023-03-13T18:23:44.459Z,13.61
2023-03-13T18:25:53.308Z,13.56
2023-03-13T18:27:59.197Z,13.53
2023-03-13T18:30:05.170Z,13.51
2023-03-13T18:32:16.121Z,13.46
2023-03-13T18:34:22.634Z,13.43
2023-03-13T18:36:29.779Z,13.39
2023-03-13T18:38:37.305Z,13.35
2023-03-13T18:40:43.460Z,13.30
2023-03-13T18:42:53.138Z,13.25
2023-03-13T18:45:03.529Z,13.21
2023-03-13T18:47:21.175Z,13.19
2023-03-13T18:49:26.746Z,13.15
2023-03-13T18:51:32.788Z,13.10
2023-03-13T18:53:39.267Z,13.05
2023-03-13T18:55:46.030Z,13.03
2023-03-13T18:57:52.048Z,12.96
2023-03-13T18:59:58.973Z,12.90
2023-03-13T19:02:05.769Z,12.84
2023-03-13T19:04:14.741Z,12.80
2023-03-13T19:06:28.667Z,12.74
2023-03-13T19:08:35.140Z,12.71
2023-03-13T19:10:45.648Z,12.68
2023-03-13T19:12:53.640Z,12.65
2023-03-13T19:15:01.524Z,12.61
2023-03-13T19:17:13.526Z,12.60
2023-03-13T19:19:21.663Z,12.58
2023-03-13T19:21:31.994Z,12.56
2023-03-13T19:23:38.323Z,12.55
2023-03-13T19:25:44.595Z,12.54
2023-03-13T19:27:50.912Z,12.53
2023-03-13T19:30:02.024Z,12.51
2023-03-13T19:32:12.576Z,12.52
2023-03-13T19:34:18.379Z,12.53
2023-03-13T19:36:24.791Z,12.53
2023-03-13T19:38:35.017Z,12.53
2023-03-13T19:40:44.913Z,12.53
2023-03-13T19:42:51.226Z,12.53
2023-03-13T19:44:58.200Z,12.52
2023-03-13T19:47:04.605Z,12.50
2023-03-13T19:49:13.062Z,12.48
2023-03-13T19:51:20.312Z,12.46
2023-03-13T19:53:29.230Z,12.42
2023-03-13T19:55:36.944Z,12.39
2023-03-13T19:57:43.712Z,12.37
2023-03-13T19:59:50.580Z,12.36
2023-03-13T20:01:56.616Z,12.35
2023-03-13T20:04:03.050Z,12.35
2023-03-13T20:06:16.368Z,12.32
2023-03-13T20:08:23.618Z,12.30
2023-03-13T20:10:30.390Z,12.27
2023-03-13T20:12:37.989Z,12.24
2023-03-13T20:14:44.270Z,12.24
2023-03-13T20:16:50.684Z,12.22
2023-03-13T20:18:56.974Z,12.19
2023-03-13T20:21:03.678Z,12.19
2023-03-13T20:23:10.812Z,12.18
2023-03-13T20:25:17.762Z,12.16
2023-03-13T20:27:26.012Z,12.16
2023-03-13T20:29:32.969Z,12.14
2023-03-13T20:31:41.964Z,12.14
2023-03-13T20:33:48.500Z,12.14
2023-03-13T20:35:59.697Z,12.14
2023-03-13T20:38:06.920Z,12.13
2023-03-13T20:40:15.145Z,12.14
2023-03-13T20:42:21.336Z,12.14
2023-03-13T20:44:32.095Z,12.14
2023-03-13T20:46:39.035Z,12.14
2023-03-13T20:48:50.206Z,12.14
2023-03-13T20:51:00.738Z,12.15
2023-03-13T20:53:06.594Z,12.15
2023-03-13T20:55:18.871Z,12.14
2023-03-13T20:57:27.189Z,12.14
2023-03-13T20:59:35.986Z,12.15
2023-03-13T21:01:42.898Z,12.16
2023-03-13T21:03:49.578Z,12.18
2023-03-13T21:05:58.170Z,12.19
2023-03-13T21:08:07.818Z,12.17
2023-03-13T21:10:14.617Z,12.17
2023-03-13T21:12:20.624Z,12.16
2023-03-13T21:14:26.311Z,12.15
2023-03-13T21:16:31.902Z,12.13
2023-03-13T21:18:37.490Z,12.10
2023-03-13T21:20:42.530Z,12.08
2023-03-13T21:22:47.837Z,12.06
2023-03-13T21:24:52.767Z,12.03
2023-03-13T21:26:59.495Z,12.01
2023-03-13T21:29:06.710Z,11.99
2023-03-13T21:31:13.839Z,11.97
2023-03-13T21:33:19.728Z,11.94
2023-03-13T21:35:24.767Z,11.91
2023-03-13T21:37:29.596Z,11.90
2023-03-13T21:39:35.001Z,11.89
2023-03-13T21:41:40.758Z,11.87
2023-03-13T21:43:47.907Z,11.86
2023-03-13T21:45:52.809Z,11.85
2023-03-13T21:47:57.788Z,11.83
2023-03-13T21:50:03.358Z,11.82
2023-03-13T21:52:08.047Z,11.84
2023-03-13T21:54:12.659Z,11.84
2023-03-13T21:56:17.515Z,11.85
2023-03-13T21:58:22.196Z,11.86
2023-03-13T22:00:27.232Z,11.87
2023-03-13T22:02:32.468Z,11.86
2023-03-13T22:04:38.257Z,11.84
2023-03-13T22:06:42.886Z,11.79
2023-03-13T22:08:48.005Z,11.73
2023-03-13T22:10:53.344Z,11.70
2023-03-13T22:12:58.023Z,11.66
2023-03-13T22:15:02.774Z,11.63
2023-03-13T22:17:07.494Z,11.59
2023-03-13T22:19:14.160Z,11.55
2023-03-13T22:21:19.145Z,11.54
2023-03-13T22:23:24.204Z,11.51
2023-03-13T22:25:28.864Z,11.47
2023-03-13T22:27:33.728Z,11.44
2023-03-13T22:29:38.649Z,11.41
2023-03-13T22:31:43.427Z,11.36
2023-03-13T22:33:48.112Z,11.32
2023-03-13T22:35:53.106Z,11.27
2023-03-13T22:37:57.865Z,11.20
2023-03-13T22:40:02.674Z,11.13
2023-03-13T22:42:07.749Z,11.06
2023-03-13T22:44:12.479Z,11.02
2023-03-13T22:46:17.149Z,10.96
2023-03-13T22:48:22.083Z,10.91
2023-03-13T22:50:26.777Z,10.88
2023-03-13T22:52:31.412Z,10.85
2023-03-13T22:54:36.128Z,10.81
2023-03-13T22:56:41.847Z,10.78
2023-03-13T22:58:46.486Z,10.76
2023-03-13T23:00:51.241Z,10.74
2023-03-13T23:02:56.039Z,10.71
2023-03-13T23:05:00.697Z,10.69
2023-03-13T23:07:05.325Z,10.66
2023-03-13T23:09:10.249Z,10.66
2023-03-13T23:11:15.213Z,10.63
2023-03-13T23:13:19.853Z,10.61
2023-03-13T23:15:24.721Z,10.61
2023-03-13T23:17:33.750Z,10.61
2023-03-13T23:19:38.460Z,10.59
2023-03-13T23:21:43.076Z,10.58
2023-03-13T23:23:47.691Z,10.57
2023-03-13T23:25:52.364Z,10.55
2023-03-13T23:27:57.056Z,10.56
2023-03-13T23:30:01.838Z,10.55
2023-03-13T23:32:06.724Z,10.55
2023-03-13T23:34:11.453Z,10.54
2023-03-13T23:36:19.878Z,10.55
2023-03-13T23:38:24.545Z,10.54
2023-03-13T23:40:29.291Z,10.53
2023-03-13T23:42:34.027Z,10.50
2023-03-13T23:44:38.839Z,10.48
2023-03-13T23:46:43.565Z,10.47
2023-03-13T23:48:48.289Z,10.46
2023-03-13T23:50:52.988Z,10.45
2023-03-13T23:52:57.610Z,10.44
2023-03-13T23:55:02.510Z,10.44
2023-03-13T23:57:07.248Z,10.42
2023-03-13T23:59:11.965Z,10.41
